createdAt,value
2022-11-23T00:01:28.093Z,6.54
2022-11-23T00:03:58.174Z,6.54
2022-11-23T00:06:26.321Z,6.52
2022-11-23T00:08:54.190Z,6.51
2022-11-23T00:11:23.161Z,6.53
2022-11-23T00:13:51.542Z,6.53
2022-11-23T00:16:25.951Z,6.55
2022-11-23T00:18:58.657Z,6.53
2022-11-23T00:21:28.200Z,6.53
2022-11-23T00:23:55.409Z,6.53
2022-11-23T00:26:22.895Z,6.54
2022-11-23T00:28:49.860Z,6.54
2022-11-23T00:31:19.627Z,6.53
2022-11-23T00:33:55.134Z,6.52
2022-11-23T00:36:24.085Z,6.53
2022-11-23T00:38:54.204Z,6.53
2022-11-23T00:41:25.738Z,6.52
2022-11-23T00:43:53.262Z,6.53
2022-11-23T00:46:24.057Z,6.52
2022-11-23T00:48:53.659Z,6.52
2022-11-23T00:51:29.273Z,6.52
2022-11-23T00:53:56.942Z,6.51
2022-11-23T00:56:26.570Z,6.50
2022-11-23T00:58:55.724Z,6.49
2022-11-23T01:01:25.969Z,6.50
2022-11-23T01:03:56.156Z,6.50
2022-11-23T01:06:26.035Z,6.50
2022-11-23T01:08:56.588Z,6.49
2022-11-23T01:11:27.451Z,6.50
2022-11-23T01:13:54.753Z,6.50
2022-11-23T01:16:24.796Z,6.49
2022-11-23T01:18:56.941Z,6.49
2022-11-23T01:21:25.366Z,6.49
2022-11-23T01:23:53.040Z,6.48
2022-11-23T01:26:20.586Z,6.48
2022-11-23T01:28:48.202Z,6.47
2022-11-23T01:31:22.587Z,6.47
2022-11-23T01:33:58.440Z,6.46
2022-11-23T01:36:29.734Z,6.45
2022-11-23T01:38:59.456Z,6.45
2022-11-23T01:41:38.968Z,6.44
2022-11-23T01:44:30.284Z,6.43
2022-11-23T01:47:01.485Z,6.45
2022-11-23T01:49:36.118Z,6.44
2022-11-23T01:52:26.432Z,6.43
2022-11-23T01:54:59.225Z,6.45
2022-11-23T01:57:41.979Z,6.44
2022-11-23T02:00:09.866Z,6.47
2022-11-23T02:02:53.458Z,6.47
2022-11-23T02:05:25.830Z,6.49
2022-11-23T02:07:53.755Z,6.49
2022-11-23T02:10:22.845Z,6.50
2022-11-23T02:12:49.838Z,6.52
2022-11-23T02:15:16.932Z,6.52
2022-11-23T02:17:44.370Z,6.51
2022-11-23T02:20:17.560Z,6.51
2022-11-23T02:23:18.260Z,6.51
2022-11-23T02:25:45.169Z,6.53
2022-11-23T02:28:22.877Z,6.53
2022-11-23T02:30:53.174Z,6.54
2022-11-23T02:33:25.199Z,6.55
2022-11-23T02:35:57.130Z,6.56
2022-11-23T02:38:30.174Z,6.57
2022-11-23T02:40:57.924Z,6.59
2022-11-23T02:43:25.506Z,6.59
2022-11-23T02:45:59.566Z,6.59
2022-11-23T02:48:26.555Z,6.60
2022-11-23T02:50:53.778Z,6.63
2022-11-23T02:53:21.002Z,6.63
2022-11-23T02:55:48.004Z,6.64
2022-11-23T02:58:14.976Z,6.63
2022-11-23T03:00:42.341Z,6.64
2022-11-23T03:03:09.484Z,6.64
2022-11-23T03:05:36.629Z,6.64
2022-11-23T03:08:06.186Z,6.64
2022-11-23T03:10:33.554Z,6.65
2022-11-23T03:13:01.010Z,6.66
2022-11-23T03:15:32.390Z,6.64
2022-11-23T03:17:59.879Z,6.65
2022-11-23T03:20:27.308Z,6.66
2022-11-23T03:22:54.357Z,6.66
2022-11-23T03:25:23.549Z,6.66
2022-11-23T03:27:53.698Z,6.66
2022-11-23T03:30:21.323Z,6.66
2022-11-23T03:32:49.345Z,6.66
2022-11-23T03:35:17.830Z,6.66
2022-11-23T03:38:05.213Z,6.66
2022-11-23T03:40:32.211Z,6.67
2022-11-23T03:43:22.743Z,6.67
2022-11-23T03:45:49.936Z,6.67
2022-11-23T03:48:17.967Z,6.68
2022-11-23T03:50:45.608Z,6.67
2022-11-23T03:53:12.915Z,6.68
2022-11-23T03:55:40.119Z,6.69
2022-11-23T03:58:07.155Z,6.69
2022-11-23T04:00:36.071Z,6.70
2022-11-23T04:03:04.377Z,6.70
2022-11-23T04:05:50.016Z,6.71
2022-11-23T04:08:36.924Z,6.69
2022-11-23T04:11:09.087Z,6.70
2022-11-23T04:13:38.425Z,6.69
2022-11-23T04:16:07.199Z,6.70
2022-11-23T04:18:34.206Z,6.70
2022-11-23T04:21:01.269Z,6.69
2022-11-23T04:23:28.686Z,6.69
2022-11-23T04:25:55.810Z,6.69
2022-11-23T04:28:24.174Z,6.70
2022-11-23T04:30:52.402Z,6.71
2022-11-23T04:33:20.005Z,6.71
2022-11-23T04:35:47.403Z,6.71
2022-11-23T04:38:15.215Z,6.70
2022-11-23T04:40:42.801Z,6.70
2022-11-23T04:43:10.252Z,6.69
2022-11-23T04:45:40.456Z,6.69
2022-11-23T04:48:13.150Z,6.69
2022-11-23T04:50:43.708Z,6.67
2022-11-23T04:53:13.881Z,6.66
2022-11-23T04:55:47.422Z,6.65
2022-11-23T04:58:15.679Z,6.63
2022-11-23T05:00:42.832Z,6.64
2022-11-23T05:03:11.673Z,6.63
2022-11-23T05:05:41.490Z,6.65
2022-11-23T05:08:09.194Z,6.64
2022-11-23T05:11:03.755Z,6.63
2022-11-23T05:13:30.869Z,6.62
2022-11-23T05:15:57.827Z,6.60
2022-11-23T05:18:28.290Z,6.57
2022-11-23T05:20:55.350Z,6.58
2022-11-23T05:23:22.674Z,6.54
2022-11-23T05:25:52.234Z,6.52
2022-11-23T05:31:12.465Z,6.51
2022-11-23T05:33:39.507Z,6.50
2022-11-23T05:36:09.720Z,6.50
2022-11-23T05:38:42.534Z,6.50
2022-11-23T05:41:15.429Z,6.49
2022-11-23T05:43:43.903Z,6.48
2022-11-23T05:46:16.110Z,6.45
2022-11-23T05:48:43.131Z,6.42
2022-11-23T05:51:11.194Z,6.39
2022-11-23T05:53:43.679Z,6.36
2022-11-23T05:56:19.347Z,6.34
2022-11-23T05:59:10.364Z,6.32
2022-11-23T06:01:39.621Z,6.28
2022-11-23T06:04:08.642Z,6.27
2022-11-23T06:06:40.879Z,6.26
2022-11-23T06:09:07.818Z,6.24
2022-11-23T06:11:37.143Z,6.21
2022-11-23T06:14:14.275Z,6.19
2022-11-23T06:16:43.878Z,6.18
2022-11-23T06:19:21.061Z,6.18
2022-11-23T06:21:50.596Z,6.20
2022-11-23T06:24:19.490Z,6.19
2022-11-23T06:26:53.378Z,6.20
2022-11-23T06:29:20.796Z,6.19
2022-11-23T06:31:47.926Z,6.22
2022-11-23T06:34:15.119Z,6.23
2022-11-23T06:36:43.190Z,6.24
2022-11-23T06:39:10.385Z,6.23
2022-11-23T06:41:37.486Z,6.22
2022-11-23T06:44:05.457Z,6.21
2022-11-23T06:46:38.879Z,6.20
2022-11-23T06:49:06.141Z,6.20
2022-11-23T06:51:33.227Z,6.19
2022-11-23T06:54:00.188Z,6.18
2022-11-23T06:56:27.404Z,6.18
2022-11-23T06:58:54.392Z,6.22
2022-11-23T07:01:25.680Z,6.20
2022-11-23T07:03:57.806Z,6.19
2022-11-23T07:06:39.542Z,6.18
2022-11-23T07:09:09.742Z,6.16
2022-11-23T07:11:48.276Z,6.16
2022-11-23T07:14:16.325Z,6.16
2022-11-23T07:16:46.747Z,6.14
2022-11-23T07:19:17.499Z,6.15
2022-11-23T07:21:46.269Z,6.11
2022-11-23T07:24:13.292Z,6.10
2022-11-23T07:26:41.015Z,6.09
2022-11-23T07:29:08.023Z,6.03
2022-11-23T07:31:35.283Z,6.00
2022-11-23T07:34:03.420Z,5.99
2022-11-23T07:36:30.586Z,5.95
2022-11-23T07:38:57.521Z,5.93
2022-11-23T07:41:27.193Z,5.92
2022-11-23T07:44:14.527Z,5.88
2022-11-23T07:46:41.447Z,5.87
2022-11-23T07:49:08.386Z,5.87
2022-11-23T07:51:35.338Z,5.86
2022-11-23T07:54:02.373Z,5.85
2022-11-23T07:56:29.492Z,5.87
2022-11-23T07:58:56.603Z,5.87
2022-11-23T08:01:23.537Z,5.90
2022-11-23T08:03:50.563Z,5.92
2022-11-23T08:06:17.766Z,5.95
2022-11-23T08:08:44.830Z,6.00
2022-11-23T08:11:14.712Z,6.06
2022-11-23T08:13:41.846Z,6.12
2022-11-23T08:16:09.178Z,6.18
2022-11-23T08:18:36.451Z,6.25
2022-11-23T08:21:03.630Z,6.31
2022-11-23T08:23:31.091Z,6.38
2022-11-23T08:25:58.354Z,6.42
2022-11-23T08:28:25.331Z,6.45
2022-11-23T08:30:52.365Z,6.45
2022-11-23T08:33:19.316Z,6.47
2022-11-23T08:35:46.265Z,6.51
2022-11-23T08:38:13.450Z,6.52
2022-11-23T08:40:40.781Z,6.52
2022-11-23T08:43:07.784Z,6.54
2022-11-23T08:45:35.020Z,6.59
2022-11-23T08:48:03.793Z,6.62
2022-11-23T08:50:31.319Z,6.66
2022-11-23T08:52:59.796Z,6.68
2022-11-23T08:55:28.175Z,6.73
2022-11-23T08:57:59.160Z,6.76
2022-11-23T09:00:26.842Z,6.80
2022-11-23T09:02:53.896Z,6.85
2022-11-23T09:05:21.054Z,6.89
2022-11-23T09:07:48.300Z,6.92
2022-11-23T09:10:18.868Z,6.95
2022-11-23T09:12:48.007Z,7.00
2022-11-23T09:15:15.437Z,7.04
2022-11-23T09:17:42.410Z,7.08
2022-11-23T09:20:10.272Z,7.14
2022-11-23T09:22:37.428Z,7.19
2022-11-23T09:25:06.903Z,7.21
2022-11-23T09:27:33.865Z,7.30
2022-11-23T09:30:00.781Z,7.33
2022-11-23T09:32:28.166Z,7.40
2022-11-23T09:34:55.118Z,7.42
2022-11-23T09:37:22.041Z,7.49
2022-11-23T09:39:48.959Z,7.54
2022-11-23T09:42:37.873Z,7.59
2022-11-23T09:45:30.717Z,7.61
2022-11-23T09:48:52.367Z,7.67
2022-11-23T09:51:23.496Z,7.74
2022-11-23T09:54:00.551Z,7.82
2022-11-23T09:56:35.114Z,7.89
2022-11-23T09:59:14.431Z,7.91
2022-11-23T10:01:41.660Z,7.93
2022-11-23T10:04:19.557Z,7.99
2022-11-23T10:06:56.637Z,8.03
2022-11-23T10:09:44.525Z,8.06
2022-11-23T10:12:26.223Z,8.12
2022-11-23T10:15:14.160Z,8.15
2022-11-23T10:18:09.028Z,8.15
2022-11-23T10:20:56.687Z,8.20
2022-11-23T10:23:55.811Z,8.28
2022-11-23T10:26:37.929Z,8.34
2022-11-23T10:29:26.974Z,8.42
2022-11-23T10:31:57.254Z,8.46
2022-11-23T10:34:56.927Z,8.52
2022-11-23T10:37:23.867Z,8.60
2022-11-23T10:39:50.792Z,8.65
2022-11-23T10:42:38.439Z,8.75
2022-11-23T10:45:06.293Z,8.81
2022-11-23T10:47:48.671Z,8.84
2022-11-23T10:50:37.354Z,8.89
2022-11-23T10:53:25.941Z,8.91
2022-11-23T10:55:59.968Z,8.97
2022-11-23T10:58:37.170Z,8.99
2022-11-23T11:01:12.156Z,9.04
2022-11-23T11:03:39.320Z,9.07
2022-11-23T11:06:09.634Z,9.09
2022-11-23T11:08:51.140Z,9.14
2022-11-23T11:11:38.628Z,9.22
2022-11-23T11:14:24.800Z,9.29
2022-11-23T11:17:00.404Z,9.35
2022-11-23T11:19:36.034Z,9.40
2022-11-23T11:22:30.551Z,9.44
2022-11-23T11:24:57.693Z,9.51
2022-11-23T11:27:29.154Z,9.59
2022-11-23T11:30:06.503Z,9.62
2022-11-23T11:32:56.362Z,9.63
2022-11-23T11:35:32.332Z,9.71
2022-11-23T11:38:33.868Z,9.78
2022-11-23T11:41:08.490Z,9.86
2022-11-23T11:43:47.361Z,9.89
2022-11-23T11:46:30.896Z,9.95
2022-11-23T11:49:13.287Z,9.98
2022-11-23T11:52:00.399Z,9.99
2022-11-23T11:54:43.770Z,10.02
2022-11-23T11:57:39.805Z,10.09
2022-11-23T12:00:15.372Z,10.11
2022-11-23T12:03:20.113Z,10.17
2022-11-23T12:05:51.814Z,10.22
2022-11-23T12:08:26.042Z,10.29
2022-11-23T12:10:59.120Z,10.37
2022-11-23T12:13:31.973Z,10.40
2022-11-23T12:16:35.243Z,10.44
2022-11-23T12:19:34.866Z,10.52
2022-11-23T12:22:49.570Z,10.56
2022-11-23T12:25:38.134Z,10.61
2022-11-23T12:28:19.289Z,10.63
2022-11-23T12:31:05.772Z,10.68
2022-11-23T12:34:06.595Z,10.80
2022-11-23T12:37:11.952Z,10.80
2022-11-23T12:40:28.227Z,10.83
2022-11-23T12:43:05.215Z,10.91
2022-11-23T12:45:50.281Z,10.91
2022-11-23T12:48:45.667Z,10.91
2022-11-23T12:51:32.340Z,10.96
2022-11-23T12:54:26.267Z,11.01
2022-11-23T12:57:14.942Z,11.03
2022-11-23T12:59:56.590Z,11.08
2022-11-23T13:02:51.724Z,11.11
2022-11-23T13:05:21.252Z,11.17
2022-11-23T13:08:11.072Z,11.09
2022-11-23T13:10:58.028Z,11.15
2022-11-23T13:14:02.349Z,11.17
2022-11-23T13:16:57.766Z,11.18
2022-11-23T13:19:54.650Z,11.18
2022-11-23T13:22:35.392Z,11.19
2022-11-23T13:25:23.888Z,11.17
2022-11-23T13:27:50.724Z,11.16
2022-11-23T13:33:37.411Z,11.16
2022-11-23T13:36:11.572Z,11.12
2022-11-23T13:38:44.041Z,11.13
2022-11-23T13:41:35.459Z,11.12
2022-11-23T13:44:32.478Z,11.12
2022-11-23T13:47:02.163Z,11.13
2022-11-23T13:49:51.585Z,11.15
2022-11-23T13:52:21.363Z,11.17
2022-11-23T13:55:13.368Z,11.15
2022-11-23T13:57:43.082Z,11.18
2022-11-23T14:00:51.888Z,11.16
2022-11-23T14:03:44.061Z,11.12
2022-11-23T14:06:39.063Z,11.11
2022-11-23T14:09:32.865Z,11.12
2022-11-23T14:12:11.630Z,11.15
2022-11-23T14:14:56.086Z,11.15
2022-11-23T14:18:01.797Z,11.15
2022-11-23T14:20:35.058Z,11.19
2022-11-23T14:23:46.804Z,11.17
2022-11-23T14:27:23.778Z,11.09
2022-11-23T14:30:34.601Z,11.07
2022-11-23T14:33:44.484Z,11.00
2022-11-23T14:36:17.536Z,10.93
2022-11-23T14:38:55.066Z,10.82
2022-11-23T14:41:29.612Z,10.75
2022-11-23T14:44:00.327Z,10.67
2022-11-23T14:46:30.253Z,10.56
2022-11-23T14:49:14.288Z,10.47
2022-11-23T14:51:44.929Z,10.38
2022-11-23T14:54:15.126Z,10.26
2022-11-23T14:56:46.585Z,10.19
2022-11-23T14:59:38.222Z,10.07
2022-11-23T15:02:15.972Z,9.96
2022-11-23T15:05:23.865Z,9.80
2022-11-23T15:08:17.528Z,9.70
2022-11-23T15:10:59.431Z,9.60
2022-11-23T15:13:29.830Z,9.50
2022-11-23T15:15:58.315Z,9.41
2022-11-23T15:18:34.526Z,9.34
2022-11-23T15:21:13.139Z,9.26
2022-11-23T15:23:52.902Z,9.19
2022-11-23T15:26:49.597Z,9.12
2022-11-23T15:29:37.647Z,9.04
2022-11-23T15:32:31.289Z,8.98
2022-11-23T15:35:07.809Z,8.94
2022-11-23T15:37:45.771Z,8.91
2022-11-23T15:40:18.461Z,8.88
2022-11-23T15:42:48.714Z,8.85
2022-11-23T15:45:37.644Z,8.81
2022-11-23T15:48:09.553Z,8.80
2022-11-23T15:50:54.924Z,8.76
2022-11-23T15:53:27.533Z,8.74
2022-11-23T15:56:03.823Z,8.73
2022-11-23T15:58:31.520Z,8.71
2022-11-23T16:01:10.995Z,8.69
2022-11-23T16:04:00.939Z,8.67
2022-11-23T16:06:48.637Z,8.66
2022-11-23T16:09:53.097Z,8.65
2022-11-23T16:12:33.773Z,8.64
2022-11-23T16:15:38.960Z,8.64
2022-11-23T16:18:13.162Z,8.64
2022-11-23T16:21:01.744Z,8.63
2022-11-23T16:23:56.098Z,8.64
2022-11-23T16:26:34.061Z,8.64
2022-11-23T16:29:02.301Z,8.65
2022-11-23T16:31:52.877Z,8.64
2022-11-23T16:34:20.036Z,8.64
2022-11-23T16:36:47.045Z,8.65
2022-11-23T16:39:13.967Z,8.66
2022-11-23T16:41:41.217Z,8.66
2022-11-23T16:44:08.307Z,8.68
2022-11-23T16:46:39.119Z,8.68
2022-11-23T16:49:21.512Z,8.69
2022-11-23T16:51:56.494Z,8.70
2022-11-23T16:54:31.757Z,8.71
2022-11-23T16:56:58.754Z,8.71
2022-11-23T16:59:25.855Z,8.71
2022-11-23T17:01:57.313Z,8.72
2022-11-23T17:04:25.298Z,8.72
2022-11-23T17:06:52.325Z,8.71
2022-11-23T17:09:19.342Z,8.71
2022-11-23T17:11:48.284Z,8.70
2022-11-23T17:14:30.233Z,8.69
2022-11-23T17:16:57.426Z,8.68
2022-11-23T17:19:24.457Z,8.65
2022-11-23T17:21:51.526Z,8.63
2022-11-23T17:24:18.517Z,8.59
2022-11-23T17:26:53.049Z,8.58
2022-11-23T17:29:21.300Z,8.56
2022-11-23T17:31:51.549Z,8.54
2022-11-23T17:34:18.592Z,8.51
2022-11-23T17:36:50.770Z,8.47
2022-11-23T17:39:23.011Z,8.42
2022-11-23T17:41:52.219Z,8.37
2022-11-23T17:44:19.134Z,8.34
2022-11-23T17:46:47.421Z,8.31
2022-11-23T17:49:16.965Z,8.28
2022-11-23T17:51:43.961Z,8.26
2022-11-23T17:54:11.145Z,8.23
2022-11-23T17:56:38.823Z,8.20
2022-11-23T17:59:08.630Z,8.17
2022-11-23T18:01:35.626Z,8.15
2022-11-23T18:04:04.652Z,8.12
2022-11-23T18:06:31.762Z,8.09
2022-11-23T18:08:58.733Z,8.05
2022-11-23T18:11:25.769Z,8.04
2022-11-23T18:13:53.373Z,8.01
2022-11-23T18:16:22.517Z,7.97
2022-11-23T18:18:50.983Z,7.96
2022-11-23T18:21:19.513Z,7.92
2022-11-23T18:23:46.488Z,7.92
2022-11-23T18:26:23.593Z,7.92
2022-11-23T18:28:50.653Z,7.91
2022-11-23T18:31:18.889Z,7.89
2022-11-23T18:33:46.500Z,7.88
2022-11-23T18:36:13.674Z,7.88
2022-11-23T18:38:41.240Z,7.87
2022-11-23T18:41:08.498Z,7.87
2022-11-23T18:43:35.458Z,7.86
2022-11-23T18:46:06.921Z,7.85
2022-11-23T18:48:34.281Z,7.82
2022-11-23T18:51:01.579Z,7.82
2022-11-23T18:53:29.564Z,7.80
2022-11-23T18:56:01.756Z,7.74
2022-11-23T18:58:34.025Z,7.74
2022-11-23T19:01:13.882Z,7.73
2022-11-23T19:03:42.154Z,7.71
2022-11-23T19:06:14.437Z,7.66
2022-11-23T19:08:51.029Z,7.67
2022-11-23T19:11:21.440Z,7.67
2022-11-23T19:13:51.734Z,7.65
2022-11-23T19:16:22.731Z,7.65
2022-11-23T19:18:57.808Z,7.61
2022-11-23T19:21:28.801Z,7.63
2022-11-23T19:23:57.236Z,7.60
2022-11-23T19:26:25.732Z,7.61
2022-11-23T19:28:54.215Z,7.61
2022-11-23T19:31:22.911Z,7.59
2022-11-23T19:33:52.387Z,7.60
2022-11-23T19:36:23.802Z,7.59
2022-11-23T19:38:52.089Z,7.56
2022-11-23T19:41:22.947Z,7.59
2022-11-23T19:43:54.302Z,7.58
2022-11-23T19:46:21.906Z,7.59
2022-11-23T19:48:49.506Z,7.58
2022-11-23T19:51:19.873Z,7.61
2022-11-23T19:53:49.186Z,7.59
2022-11-23T19:56:26.293Z,7.58
2022-11-23T19:58:56.533Z,7.58
2022-11-23T20:01:27.322Z,7.60
2022-11-23T20:03:57.098Z,7.60
2022-11-23T20:06:30.964Z,7.62
2022-11-23T20:09:01.175Z,7.61
2022-11-23T20:11:31.421Z,7.63
2022-11-23T20:13:59.303Z,7.61
2022-11-23T20:16:30.337Z,7.62
2022-11-23T20:19:02.751Z,7.63
2022-11-23T20:21:31.942Z,7.62
2022-11-23T20:24:13.966Z,7.64
2022-11-23T20:26:41.838Z,7.64
2022-11-23T20:29:10.877Z,7.65
2022-11-23T20:31:38.174Z,7.66
2022-11-23T20:34:07.735Z,7.66
2022-11-23T20:36:38.026Z,7.68
2022-11-23T20:39:08.253Z,7.69
2022-11-23T20:41:37.082Z,7.68
2022-11-23T20:44:12.238Z,7.67
2022-11-23T20:49:27.203Z,7.67
2022-11-23T20:51:54.146Z,7.65
2022-11-23T20:54:21.227Z,7.63
2022-11-23T20:56:48.310Z,7.64
2022-11-23T20:59:15.419Z,7.62
2022-11-23T21:01:42.590Z,7.61
2022-11-23T21:04:09.776Z,7.60
2022-11-23T21:06:39.321Z,7.58
2022-11-23T21:09:09.109Z,7.57
2022-11-23T21:11:55.171Z,7.56
2022-11-23T21:14:27.171Z,7.54
2022-11-23T21:16:58.135Z,7.55
2022-11-23T21:19:37.604Z,7.56
2022-11-23T21:22:11.921Z,7.54
2022-11-23T21:24:39.681Z,7.55
2022-11-23T21:27:10.194Z,7.54
2022-11-23T21:29:37.183Z,7.56
2022-11-23T21:32:05.381Z,7.55
2022-11-23T21:34:32.878Z,7.54
2022-11-23T21:37:00.179Z,7.55
2022-11-23T21:39:29.869Z,7.54
2022-11-23T21:41:56.915Z,7.53
2022-11-23T21:44:23.872Z,7.54
2022-11-23T21:46:51.097Z,7.54
2022-11-23T21:49:18.239Z,7.53
2022-11-23T21:51:45.828Z,7.53
2022-11-23T21:54:15.458Z,7.52
2022-11-23T21:56:44.574Z,7.50
2022-11-23T21:59:12.267Z,7.51
2022-11-23T22:01:40.327Z,7.51
2022-11-23T22:04:15.873Z,7.50
2022-11-23T22:06:44.431Z,7.50
2022-11-23T22:09:12.928Z,7.50
2022-11-23T22:11:42.855Z,7.47
2022-11-23T22:14:15.466Z,7.46
2022-11-23T22:16:49.579Z,7.45
2022-11-23T22:19:17.778Z,7.44
2022-11-23T22:21:46.609Z,7.42
2022-11-23T22:24:17.110Z,7.39
2022-11-23T22:26:45.065Z,7.39
2022-11-23T22:29:12.395Z,7.36
2022-11-23T22:31:39.984Z,7.35
2022-11-23T22:34:10.652Z,7.36
2022-11-23T22:36:37.620Z,7.35
2022-11-23T22:39:06.712Z,7.37
2022-11-23T22:41:36.799Z,7.37
2022-11-23T22:44:07.374Z,7.37
2022-11-23T22:46:34.899Z,7.36
2022-11-23T22:49:02.300Z,7.37
2022-11-23T22:51:29.795Z,7.36
2022-11-23T22:53:59.540Z,7.37
2022-11-23T22:56:27.829Z,7.37
2022-11-23T22:58:54.932Z,7.39
2022-11-23T23:01:26.440Z,7.38
2022-11-23T23:03:59.667Z,7.38
2022-11-23T23:06:29.849Z,7.38
2022-11-23T23:09:01.786Z,7.41
2022-11-23T23:11:32.144Z,7.42
2022-11-23T23:13:59.386Z,7.43
2022-11-23T23:16:27.094Z,7.45
2022-11-23T23:18:57.956Z,7.46
2022-11-23T23:21:26.912Z,7.45
2022-11-23T23:23:57.228Z,7.48
2022-11-23T23:26:27.050Z,7.46
2022-11-23T23:28:59.569Z,7.47
2022-11-23T23:31:27.397Z,7.46
2022-11-23T23:33:54.344Z,7.46
2022-11-23T23:36:22.681Z,7.45
2022-11-23T23:38:50.888Z,7.45
2022-11-23T23:41:17.903Z,7.46
2022-11-23T23:43:44.852Z,7.46
2022-11-23T23:46:13.492Z,7.46
2022-11-23T23:48:41.412Z,7.48
2022-11-23T23:51:21.891Z,7.49
2022-11-23T23:53:50.804Z,7.50
2022-11-23T23:56:24.470Z,7.51
2022-11-23T23:58:52.480Z,7.54
